createdAt,value
2023-04-28T00:01:28.993Z,8.39
2023-04-28T00:03:57.041Z,8.37
2023-04-28T00:06:23.944Z,8.26
2023-04-28T00:08:50.648Z,8.29
2023-04-28T00:11:17.338Z,8.47
2023-04-28T00:13:44.158Z,8.33
2023-04-28T00:16:11.030Z,8.28
2023-04-28T00:18:37.736Z,8.20
2023-04-28T00:21:04.697Z,8.46
2023-04-28T00:23:31.334Z,8.50
2023-04-28T00:25:58.146Z,8.33
2023-04-28T00:30:54.366Z,8.51
2023-04-28T00:33:21.108Z,8.14
2023-04-28T00:35:47.755Z,8.22
2023-04-28T00:38:14.422Z,8.48
2023-04-28T00:40:41.190Z,8.39
2023-04-28T00:43:07.843Z,8.36
2023-04-28T00:45:34.918Z,8.50
2023-04-28T00:48:02.651Z,8.57
2023-04-28T00:50:29.376Z,8.09
2023-04-28T00:52:56.253Z,8.34
2023-04-28T00:55:24.964Z,8.45
2023-04-28T00:57:51.787Z,8.48
2023-04-28T01:00:18.516Z,8.42
2023-04-28T01:02:45.278Z,8.60
2023-04-28T01:05:13.682Z,8.18
2023-04-28T01:07:40.352Z,8.04
2023-04-28T01:10:07.825Z,8.15
2023-04-28T01:12:34.474Z,8.20
2023-04-28T01:15:01.655Z,8.46
2023-04-28T01:17:28.362Z,8.41
2023-04-28T01:19:55.896Z,8.74
2023-04-28T01:22:22.628Z,8.43
2023-04-28T01:24:49.330Z,8.48
2023-04-28T01:27:16.678Z,8.53
2023-04-28T01:29:43.408Z,8.49
2023-04-28T01:32:10.119Z,8.52
2023-04-28T01:34:36.933Z,8.44
2023-04-28T01:37:03.615Z,8.43
2023-04-28T01:39:30.429Z,8.58
2023-04-28T01:41:57.110Z,7.87
2023-04-28T01:44:23.748Z,8.50
2023-04-28T01:46:50.518Z,8.59
2023-04-28T01:49:17.193Z,8.32
2023-04-28T01:51:43.839Z,8.56
2023-04-28T01:54:11.259Z,8.61
2023-04-28T01:56:37.944Z,8.38
2023-04-28T01:59:04.581Z,8.50
2023-04-28T02:01:31.385Z,8.46
2023-04-28T02:03:58.253Z,8.32
2023-04-28T02:06:25.042Z,8.18
2023-04-28T02:08:51.917Z,8.47
2023-04-28T02:11:18.550Z,8.27
2023-04-28T02:13:45.247Z,8.55
2023-04-28T02:16:12.031Z,8.24
2023-04-28T02:18:38.722Z,8.41
2023-04-28T02:21:12.431Z,8.56
2023-04-28T02:23:40.245Z,8.65
2023-04-28T02:26:06.929Z,8.43
2023-04-28T02:28:33.598Z,8.22
2023-04-28T02:31:08.081Z,8.55
2023-04-28T02:33:35.545Z,8.62
2023-04-28T02:36:03.386Z,8.35
2023-04-28T02:38:30.464Z,8.41
2023-04-28T02:41:01.303Z,8.46
2023-04-28T02:43:28.998Z,8.23
2023-04-28T02:45:55.913Z,8.11
2023-04-28T02:48:23.011Z,8.50
2023-04-28T02:50:49.905Z,8.80
2023-04-28T02:53:16.821Z,8.49
2023-04-28T02:55:43.471Z,8.42
2023-04-28T02:58:10.249Z,8.52
2023-04-28T03:00:36.969Z,8.77
2023-04-28T03:03:04.021Z,8.79
2023-04-28T03:05:31.000Z,8.69
2023-04-28T03:07:57.755Z,8.61
2023-04-28T03:10:24.544Z,8.85
2023-04-28T03:12:51.564Z,8.64
2023-04-28T03:15:18.353Z,8.68
2023-04-28T03:17:45.191Z,8.79
2023-04-28T03:20:13.057Z,8.55
2023-04-28T03:22:40.042Z,8.82
2023-04-28T03:25:06.917Z,8.77
2023-04-28T03:27:33.648Z,8.42
2023-04-28T03:30:00.392Z,8.55
2023-04-28T03:32:27.024Z,8.90
2023-04-28T03:34:53.737Z,8.93
2023-04-28T03:37:20.460Z,8.82
2023-04-28T03:39:47.117Z,8.87
2023-04-28T03:42:13.833Z,8.86
2023-04-28T03:44:40.561Z,8.70
2023-04-28T03:47:07.354Z,8.80
2023-04-28T03:49:34.017Z,8.62
2023-04-28T03:52:00.703Z,8.61
2023-04-28T03:54:27.353Z,8.87
2023-04-28T03:56:54.005Z,8.96
2023-04-28T03:59:21.169Z,8.67
2023-04-28T04:01:47.845Z,8.97
2023-04-28T04:04:14.886Z,8.73
2023-04-28T04:06:41.850Z,8.71
2023-04-28T04:09:08.901Z,8.60
2023-04-28T04:11:35.573Z,8.57
2023-04-28T04:14:02.495Z,8.63
2023-04-28T04:16:29.489Z,8.56
2023-04-28T04:18:56.422Z,8.73
2023-04-28T04:21:23.166Z,8.78
2023-04-28T04:23:49.871Z,8.62
2023-04-28T04:26:16.576Z,8.70
2023-04-28T04:28:43.272Z,8.79
2023-04-28T04:31:09.938Z,8.83
2023-04-28T04:33:37.733Z,8.84
2023-04-28T04:36:05.156Z,8.44
2023-04-28T04:38:31.910Z,8.83
2023-04-28T04:40:58.563Z,8.64
2023-04-28T04:43:25.446Z,8.54
2023-04-28T04:45:52.156Z,8.66
2023-04-28T04:48:18.911Z,8.53
2023-04-28T04:50:45.705Z,8.82
2023-04-28T04:53:16.052Z,8.50
2023-04-28T04:55:43.349Z,8.60
2023-04-28T04:58:10.222Z,8.71
2023-04-28T05:00:40.027Z,8.56
2023-04-28T05:03:10.096Z,8.78
2023-04-28T05:05:36.844Z,8.81
2023-04-28T05:08:03.800Z,8.79
2023-04-28T05:10:30.485Z,8.77
2023-04-28T05:12:57.251Z,8.63
2023-04-28T05:15:23.948Z,8.75
2023-04-28T05:17:50.774Z,8.60
2023-04-28T05:20:17.496Z,8.93
2023-04-28T05:22:44.152Z,8.53
2023-04-28T05:25:10.795Z,8.76
2023-04-28T05:27:39.551Z,8.62
2023-04-28T05:30:08.245Z,8.83
2023-04-28T05:32:36.137Z,8.97
2023-04-28T05:35:03.562Z,8.99
2023-04-28T05:37:30.178Z,8.59
2023-04-28T05:39:56.848Z,8.96
2023-04-28T05:42:23.526Z,8.98
2023-04-28T05:44:50.155Z,8.93
2023-04-28T05:47:16.879Z,8.92
2023-04-28T05:49:43.527Z,8.93
2023-04-28T05:52:10.214Z,9.10
2023-04-28T05:54:36.868Z,8.90
2023-04-28T05:57:03.726Z,8.55
2023-04-28T05:59:31.592Z,8.93
2023-04-28T06:01:58.385Z,9.21
2023-04-28T06:04:26.619Z,9.09
2023-04-28T06:06:53.605Z,9.12
2023-04-28T06:09:20.418Z,9.03
2023-04-28T06:11:47.314Z,9.07
2023-04-28T06:14:14.222Z,8.92
2023-04-28T06:16:41.121Z,9.03
2023-04-28T06:19:07.879Z,9.24
2023-04-28T06:21:34.547Z,9.28
2023-04-28T06:24:02.098Z,9.02
2023-04-28T06:26:29.445Z,9.50
2023-04-28T06:28:56.517Z,9.38
2023-04-28T06:31:23.278Z,9.27
2023-04-28T06:33:50.184Z,9.46
2023-04-28T06:36:17.967Z,9.36
2023-04-28T06:38:45.342Z,9.54
2023-04-28T06:41:12.259Z,9.49
2023-04-28T06:43:38.940Z,9.71
2023-04-28T06:46:05.825Z,9.58
2023-04-28T06:48:32.606Z,9.64
2023-04-28T06:50:59.284Z,9.22
2023-04-28T06:53:25.921Z,9.50
2023-04-28T06:55:52.936Z,9.88
2023-04-28T06:58:21.066Z,9.85
2023-04-28T07:00:48.035Z,9.84
2023-04-28T07:03:14.819Z,9.87
2023-04-28T07:05:41.611Z,9.85
2023-04-28T07:08:08.264Z,9.82
2023-04-28T07:10:34.962Z,9.76
2023-04-28T07:13:02.960Z,9.91
2023-04-28T07:15:29.889Z,9.84
2023-04-28T07:17:56.635Z,9.82
2023-04-28T07:20:23.364Z,9.95
2023-04-28T07:22:50.059Z,10.02
2023-04-28T07:25:16.764Z,9.60
2023-04-28T07:27:43.437Z,9.98
2023-04-28T07:30:25.812Z,10.09
2023-04-28T07:32:53.919Z,10.00
2023-04-28T07:35:20.606Z,10.07
2023-04-28T07:37:47.408Z,9.98
2023-04-28T07:40:14.273Z,10.04
2023-04-28T07:42:41.226Z,9.91
2023-04-28T07:45:08.585Z,10.48
2023-04-28T07:47:35.666Z,10.12
2023-04-28T07:50:05.267Z,10.11
2023-04-28T07:52:33.184Z,10.34
2023-04-28T07:55:00.215Z,10.26
2023-04-28T07:57:27.153Z,10.45
2023-04-28T07:59:53.891Z,10.63
2023-04-28T08:02:21.030Z,10.50
2023-04-28T08:04:47.953Z,10.63
2023-04-28T08:07:14.936Z,10.92
2023-04-28T08:09:44.208Z,10.39
2023-04-28T08:12:10.931Z,10.73
2023-04-28T08:14:37.590Z,10.66
2023-04-28T08:17:04.343Z,10.55
2023-04-28T08:19:31.264Z,10.99
2023-04-28T08:21:58.055Z,10.98
2023-04-28T08:24:24.749Z,11.24
2023-04-28T08:26:52.145Z,11.05
2023-04-28T08:29:18.821Z,11.01
2023-04-28T08:31:45.813Z,11.23
2023-04-28T08:34:14.015Z,11.55
2023-04-28T08:36:42.622Z,11.25
2023-04-28T08:39:11.108Z,11.10
2023-04-28T08:41:42.233Z,11.23
2023-04-28T08:44:10.062Z,11.24
2023-04-28T08:46:42.353Z,10.99
2023-04-28T08:49:17.082Z,11.18
2023-04-28T08:51:55.615Z,11.33
2023-04-28T08:54:26.964Z,11.15
2023-04-28T08:56:55.719Z,11.18
2023-04-28T08:59:22.814Z,11.20
2023-04-28T09:01:50.611Z,11.51
2023-04-28T09:04:18.608Z,11.53
2023-04-28T09:06:46.634Z,11.67
2023-04-28T09:09:25.378Z,11.71
2023-04-28T09:11:52.365Z,11.89
2023-04-28T09:14:19.210Z,11.62
2023-04-28T09:16:46.332Z,11.80
2023-04-28T09:19:13.209Z,11.47
2023-04-28T09:21:53.860Z,11.65
2023-04-28T09:24:31.900Z,11.54
2023-04-28T09:27:04.468Z,11.71
2023-04-28T09:29:32.112Z,11.88
2023-04-28T09:32:22.262Z,11.57
2023-04-28T09:34:51.529Z,11.99
2023-04-28T09:37:23.488Z,12.21
2023-04-28T09:39:51.859Z,12.03
2023-04-28T09:42:42.675Z,12.34
2023-04-28T09:45:11.349Z,12.50
2023-04-28T09:47:42.005Z,12.50
2023-04-28T09:50:12.830Z,12.26
2023-04-28T09:52:41.512Z,12.33
2023-04-28T09:55:08.989Z,12.08
2023-04-28T09:57:36.597Z,12.50
2023-04-28T10:00:09.560Z,11.88
2023-04-28T10:05:10.041Z,12.55
2023-04-28T10:07:37.718Z,12.45
2023-04-28T10:10:05.605Z,12.42
2023-04-28T10:12:33.173Z,12.40
2023-04-28T10:15:00.528Z,12.20
2023-04-28T10:17:29.794Z,11.82
2023-04-28T10:19:57.285Z,12.36
2023-04-28T10:22:42.441Z,12.39
2023-04-28T10:25:12.185Z,12.46
2023-04-28T10:27:41.205Z,12.43
2023-04-28T10:30:27.547Z,12.73
2023-04-28T10:33:14.326Z,12.69
2023-04-28T10:35:47.978Z,12.43
2023-04-28T10:38:14.944Z,13.07
2023-04-28T10:40:42.678Z,12.60
2023-04-28T10:43:11.256Z,12.73
2023-04-28T10:45:56.274Z,12.84
2023-04-28T10:48:46.564Z,12.68
2023-04-28T10:51:16.580Z,12.79
2023-04-28T10:53:47.169Z,12.94
2023-04-28T10:56:25.608Z,12.39
2023-04-28T10:58:56.210Z,12.42
2023-04-28T11:01:24.910Z,12.77
2023-04-28T11:04:00.943Z,12.71
2023-04-28T11:06:40.345Z,12.26
2023-04-28T11:09:14.120Z,12.33
2023-04-28T11:12:05.706Z,12.43
2023-04-28T11:14:36.488Z,12.53
2023-04-28T11:17:05.110Z,12.48
2023-04-28T11:19:34.593Z,12.45
2023-04-28T11:22:03.123Z,12.58
2023-04-28T11:24:31.091Z,12.86
2023-04-28T11:26:59.218Z,12.77
2023-04-28T11:29:40.182Z,12.79
2023-04-28T11:32:10.441Z,12.77
2023-04-28T11:34:37.903Z,12.45
2023-04-28T11:37:07.269Z,12.53
2023-04-28T11:39:34.699Z,11.91
2023-04-28T11:42:09.202Z,12.15
2023-04-28T11:44:35.933Z,11.89
2023-04-28T11:47:04.310Z,12.08
2023-04-28T11:49:41.639Z,11.90
2023-04-28T11:52:09.347Z,11.94
2023-04-28T11:54:37.591Z,12.29
2023-04-28T11:57:05.868Z,12.51
2023-04-28T11:59:34.575Z,11.90
2023-04-28T12:02:03.939Z,12.33
2023-04-28T12:04:41.873Z,12.12
2023-04-28T12:07:16.363Z,12.27
2023-04-28T12:09:46.947Z,12.57
2023-04-28T12:12:45.189Z,12.55
2023-04-28T12:15:18.034Z,12.67
2023-04-28T12:17:46.326Z,12.70
2023-04-28T12:20:37.559Z,13.09
2023-04-28T12:23:05.610Z,13.21
2023-04-28T12:25:34.082Z,13.05
2023-04-28T12:28:07.999Z,12.96
2023-04-28T12:30:42.144Z,13.03
2023-04-28T12:33:26.102Z,12.80
2023-04-28T12:35:55.201Z,13.08
2023-04-28T12:38:22.769Z,12.98
2023-04-28T12:40:49.504Z,12.74
2023-04-28T12:43:16.160Z,12.89
2023-04-28T12:45:43.450Z,12.93
2023-04-28T12:48:10.374Z,13.06
2023-04-28T12:50:37.066Z,12.85
2023-04-28T12:53:03.768Z,12.86
2023-04-28T12:55:30.594Z,12.77
2023-04-28T12:57:57.625Z,12.60
2023-04-28T13:00:25.198Z,12.79
2023-04-28T13:02:53.223Z,12.88
2023-04-28T13:05:20.132Z,12.78
2023-04-28T13:07:47.797Z,12.81
2023-04-28T13:10:14.548Z,13.20
2023-04-28T13:12:41.660Z,12.90
2023-04-28T13:15:09.226Z,13.30
2023-04-28T13:17:36.171Z,13.05
2023-04-28T13:20:05.643Z,13.08
2023-04-28T13:22:32.425Z,13.19
2023-04-28T13:24:59.160Z,12.88
2023-04-28T13:27:26.030Z,12.90
2023-04-28T13:29:52.847Z,12.99
2023-04-28T13:32:19.560Z,13.37
2023-04-28T13:34:46.838Z,13.05
2023-04-28T13:37:13.866Z,13.26
2023-04-28T13:39:40.634Z,13.40
2023-04-28T13:42:07.344Z,13.16
2023-04-28T13:44:34.050Z,13.33
2023-04-28T13:47:00.961Z,13.04
2023-04-28T13:49:28.151Z,13.59
2023-04-28T13:51:54.809Z,13.66
2023-04-28T13:54:21.948Z,13.43
2023-04-28T13:56:48.712Z,13.30
2023-04-28T13:59:15.416Z,12.39
2023-04-28T14:01:42.314Z,12.55
2023-04-28T14:04:09.357Z,12.48
2023-04-28T14:06:37.684Z,12.35
2023-04-28T14:09:04.537Z,12.26
2023-04-28T14:11:31.187Z,12.30
2023-04-28T14:13:57.865Z,11.94
2023-04-28T14:16:24.732Z,11.98
2023-04-28T14:18:51.912Z,11.71
2023-04-28T14:21:18.671Z,11.91
2023-04-28T14:23:45.371Z,11.88
2023-04-28T14:26:12.180Z,12.11
2023-04-28T14:28:38.889Z,11.65
2023-04-28T14:31:09.322Z,11.79
2023-04-28T14:33:36.886Z,11.75
2023-04-28T14:36:04.128Z,11.99
2023-04-28T14:38:31.298Z,11.77
2023-04-28T14:40:58.289Z,11.64
2023-04-28T14:43:25.102Z,11.84
2023-04-28T14:45:52.261Z,11.79
2023-04-28T14:48:19.705Z,11.80
2023-04-28T14:50:46.897Z,11.79
2023-04-28T14:53:13.618Z,12.05
2023-04-28T14:55:40.527Z,11.86
2023-04-28T14:58:07.571Z,11.62
2023-04-28T15:00:36.094Z,11.93
2023-04-28T15:03:03.123Z,11.95
2023-04-28T15:05:29.898Z,11.78
2023-04-28T15:07:56.902Z,11.84
2023-04-28T15:10:23.651Z,12.16
2023-04-28T15:12:50.649Z,11.68
2023-04-28T15:15:17.375Z,11.52
2023-04-28T15:17:45.144Z,11.99
2023-04-28T15:20:11.970Z,11.77
2023-04-28T15:22:38.754Z,11.75
2023-04-28T15:25:06.033Z,11.63
2023-04-28T15:27:32.780Z,11.40
2023-04-28T15:29:59.533Z,11.68
2023-04-28T15:32:27.281Z,11.54
2023-04-28T15:34:55.123Z,11.41
2023-04-28T15:37:52.117Z,11.57
2023-04-28T15:40:20.106Z,11.57
2023-04-28T15:42:51.839Z,11.23
2023-04-28T15:45:22.603Z,11.62
2023-04-28T15:47:50.926Z,11.73
2023-04-28T15:50:19.832Z,11.30
2023-04-28T15:52:47.672Z,11.31
2023-04-28T15:55:15.781Z,11.31
2023-04-28T15:57:43.279Z,11.49
2023-04-28T16:00:11.400Z,11.34
2023-04-28T16:02:39.409Z,11.35
2023-04-28T16:05:06.876Z,11.40
2023-04-28T16:07:42.348Z,11.50
2023-04-28T16:10:09.957Z,11.33
2023-04-28T16:12:37.099Z,11.47
2023-04-28T16:15:04.226Z,11.27
2023-04-28T16:17:31.130Z,11.41
2023-04-28T16:19:57.934Z,10.94
2023-04-28T16:22:25.428Z,10.72
2023-04-28T16:24:53.876Z,11.01
2023-04-28T16:27:20.942Z,10.98
2023-04-28T16:29:47.664Z,10.95
2023-04-28T16:32:14.512Z,10.40
2023-04-28T16:34:41.531Z,10.30
2023-04-28T16:37:08.413Z,10.28
2023-04-28T16:39:35.070Z,10.71
2023-04-28T16:42:01.993Z,10.69
2023-04-28T16:44:28.897Z,10.52
2023-04-28T16:47:00.755Z,10.61
2023-04-28T16:49:27.675Z,10.36
2023-04-28T16:52:02.168Z,10.29
2023-04-28T16:54:30.142Z,10.39
2023-04-28T16:57:02.570Z,10.53
2023-04-28T16:59:33.977Z,10.28
2023-04-28T17:02:04.930Z,10.64
2023-04-28T17:04:32.051Z,10.68
2023-04-28T17:06:59.287Z,10.34
2023-04-28T17:09:26.393Z,10.26
2023-04-28T17:11:53.258Z,10.30
2023-04-28T17:14:20.140Z,10.64
2023-04-28T17:16:47.273Z,10.41
2023-04-28T17:19:14.538Z,10.43
2023-04-28T17:21:41.458Z,10.44
2023-04-28T17:24:09.026Z,10.31
2023-04-28T17:26:36.486Z,9.98
2023-04-28T17:29:04.120Z,10.49
2023-04-28T17:31:31.431Z,10.38
2023-04-28T17:33:59.889Z,10.30
2023-04-28T17:36:27.396Z,9.98
2023-04-28T17:38:55.036Z,10.41
2023-04-28T17:41:22.932Z,10.05
2023-04-28T17:43:51.848Z,10.11
2023-04-28T17:46:19.142Z,10.06
2023-04-28T17:48:45.964Z,10.06
2023-04-28T17:51:12.775Z,9.93
2023-04-28T17:53:39.725Z,10.04
2023-04-28T17:56:06.853Z,9.70
2023-04-28T17:58:33.795Z,9.94
2023-04-28T18:01:04.971Z,9.68
2023-04-28T18:03:34.012Z,10.16
2023-04-28T18:06:01.460Z,9.72
2023-04-28T18:08:28.325Z,9.74
2023-04-28T18:10:55.858Z,9.48
2023-04-28T18:13:22.578Z,9.95
2023-04-28T18:15:49.471Z,9.86
2023-04-28T18:18:17.037Z,9.54
2023-04-28T18:20:43.995Z,10.01
2023-04-28T18:23:10.828Z,9.87
2023-04-28T18:25:37.794Z,9.81
2023-04-28T18:28:05.479Z,9.75
2023-04-28T18:30:38.091Z,9.65
2023-04-28T18:33:08.759Z,9.57
2023-04-28T18:35:37.039Z,9.75
2023-04-28T18:38:05.187Z,9.48
2023-04-28T18:40:33.333Z,9.80
2023-04-28T18:43:01.017Z,9.76
2023-04-28T18:45:32.381Z,9.77
2023-04-28T18:47:59.248Z,9.75
2023-04-28T18:50:26.088Z,9.81
2023-04-28T18:52:52.766Z,9.59
2023-04-28T18:55:19.670Z,9.72
2023-04-28T18:57:48.200Z,9.64
2023-04-28T19:00:16.439Z,9.74
2023-04-28T19:02:44.680Z,9.22
2023-04-28T19:05:12.755Z,9.36
2023-04-28T19:07:39.540Z,9.68
2023-04-28T19:10:07.109Z,9.15
2023-04-28T19:12:33.785Z,8.98
2023-04-28T19:15:01.132Z,8.96
2023-04-28T19:17:28.593Z,9.38
2023-04-28T19:19:56.675Z,9.65
2023-04-28T19:22:35.687Z,9.28
2023-04-28T19:25:04.165Z,9.20
2023-04-28T19:27:39.202Z,9.54
2023-04-28T19:30:09.006Z,9.34
2023-04-28T19:32:35.978Z,9.50
2023-04-28T19:35:04.561Z,9.64
2023-04-28T19:37:31.971Z,9.33
2023-04-28T19:39:58.841Z,8.96
2023-04-28T19:42:26.081Z,8.63
2023-04-28T19:44:58.103Z,9.35
2023-04-28T19:47:30.065Z,9.22
2023-04-28T19:50:00.707Z,9.19
2023-04-28T19:52:28.030Z,8.72
2023-04-28T19:54:54.983Z,9.05
2023-04-28T19:57:22.503Z,9.18
2023-04-28T19:59:49.841Z,9.15
2023-04-28T20:02:17.512Z,9.18
2023-04-28T20:04:45.265Z,9.04
2023-04-28T20:07:12.155Z,9.31
2023-04-28T20:09:39.281Z,8.95
2023-04-28T20:12:08.834Z,9.23
2023-04-28T20:14:37.179Z,9.07
2023-04-28T20:17:05.615Z,9.05
2023-04-28T20:19:32.385Z,8.81
2023-04-28T20:21:59.038Z,8.90
2023-04-28T20:24:25.925Z,8.73
2023-04-28T20:26:54.643Z,8.62
2023-04-28T20:29:21.546Z,8.80
2023-04-28T20:31:48.549Z,8.62
2023-04-28T20:34:15.445Z,8.49
2023-04-28T20:36:43.071Z,8.61
2023-04-28T20:39:11.906Z,8.99
2023-04-28T20:41:41.024Z,8.84
2023-04-28T20:44:08.242Z,8.80
2023-04-28T20:46:35.588Z,8.92
2023-04-28T20:49:03.001Z,8.50
2023-04-28T20:51:30.222Z,8.81
2023-04-28T20:53:57.737Z,8.76
2023-04-28T20:56:24.560Z,8.57
2023-04-28T20:58:51.576Z,8.71
2023-04-28T21:01:18.465Z,8.62
2023-04-28T21:03:45.570Z,8.54
2023-04-28T21:06:12.630Z,8.24
2023-04-28T21:08:40.906Z,8.35
2023-04-28T21:11:17.924Z,8.55
2023-04-28T21:13:45.888Z,8.52
2023-04-28T21:16:20.568Z,8.78
2023-04-28T21:18:48.304Z,8.56
2023-04-28T21:21:15.445Z,8.80
2023-04-28T21:23:43.234Z,8.42
2023-04-28T21:26:10.609Z,8.31
2023-04-28T21:28:37.635Z,8.56
2023-04-28T21:31:05.099Z,8.76
2023-04-28T21:33:32.328Z,8.43
2023-04-28T21:36:03.697Z,8.45
2023-04-28T21:38:30.413Z,8.07
2023-04-28T21:40:57.099Z,8.32
2023-04-28T21:43:24.213Z,8.36
2023-04-28T21:45:52.232Z,8.27
2023-04-28T21:48:19.050Z,8.65
2023-04-28T21:50:45.796Z,8.17
2023-04-28T21:53:12.488Z,8.19
2023-04-28T21:55:44.437Z,8.47
2023-04-28T21:58:11.703Z,7.94
2023-04-28T22:00:49.046Z,8.31
2023-04-28T22:03:16.404Z,8.32
2023-04-28T22:05:44.847Z,8.22
2023-04-28T22:08:12.822Z,8.19
2023-04-28T22:10:39.678Z,8.36
2023-04-28T22:13:07.005Z,8.12
2023-04-28T22:15:34.739Z,8.61
2023-04-28T22:18:05.642Z,8.08
2023-04-28T22:20:32.624Z,8.26
2023-04-28T22:22:59.438Z,8.04
2023-04-28T22:25:26.373Z,7.97
2023-04-28T22:27:53.025Z,8.02
2023-04-28T22:30:19.933Z,7.93
2023-04-28T22:32:47.376Z,7.52
2023-04-28T22:35:16.882Z,8.13
2023-04-28T22:37:43.810Z,7.73
2023-04-28T22:40:11.326Z,7.83
2023-04-28T22:42:39.746Z,8.02
2023-04-28T22:45:07.030Z,8.14
2023-04-28T22:47:34.739Z,7.80
2023-04-28T22:50:04.369Z,8.03
2023-04-28T22:52:31.772Z,7.80
2023-04-28T22:54:58.750Z,7.73
2023-04-28T22:57:25.660Z,7.54
2023-04-28T22:59:52.599Z,7.94
2023-04-28T23:02:19.812Z,7.70
2023-04-28T23:04:46.732Z,7.73
2023-04-28T23:07:13.477Z,7.36
2023-04-28T23:09:40.244Z,7.60
2023-04-28T23:12:07.292Z,7.47
2023-04-28T23:14:34.238Z,7.83
2023-04-28T23:17:00.944Z,7.60
2023-04-28T23:19:27.678Z,7.58
2023-04-28T23:21:54.589Z,7.49
2023-04-28T23:24:21.392Z,7.62
2023-04-28T23:26:48.454Z,7.65
2023-04-28T23:29:15.176Z,7.64
2023-04-28T23:31:41.900Z,7.51
2023-04-28T23:34:09.239Z,7.60
2023-04-28T23:36:36.852Z,7.29
2023-04-28T23:39:03.607Z,7.49
2023-04-28T23:41:30.561Z,7.47
2023-04-28T23:43:57.493Z,7.60
2023-04-28T23:46:24.196Z,7.23
2023-04-28T23:48:50.951Z,7.26
2023-04-28T23:51:17.646Z,7.42
2023-04-28T23:53:44.344Z,7.53
2023-04-28T23:56:11.215Z,7.21
2023-04-28T23:58:38.758Z,7.26
